»·PEaware :: RFR12 KLSV-KMHV

RFR12 :: KLSV-KMHV

FLIGHT INFORMATION

Flight Status: Arrived
Operator:
Royal Airforce UK
More flights by this operator :: More flights under this callsign
Pilot: Matthew M. (8235)
Aircraft: BRITISH AERO HAWK T45 GOSHAWK
(HAWK)
More flights by this aircraft type
Origin: KLSV Nellis AFB
United States
Destination: KMHV Mojave
United States
More flights between these airports :: More routes between these airports
Route: +FYTTR LOW KMHV
File this flight plan on PilotEdge
Remarks:
Altitude:
(Current/Filed)
16,500ft
Speed:
(Current/Filed)
450kts
Departed: 11-Dec-19 01:55 PM
Arrived: 11-Dec-19 02:50 PM
Distance/Time
Traveled:
167nm/0:55
Distance/Time
To Go:
Arrived

Flight Plot

Page will automatically refresh every two minutes.

Flight plan parsing failed; only flown route is shown


Map Options




Map Legend


Flown Route
Filed Route
Departure Airport
Arrival Airport
Navaid (VOR, NDB)
Fix

Horizontal Profiles

Position Reports

Time Latitude Longitude Heading Altitude Ground
Speed
11-Dec-19 13:37 36.223003 -115.039643 308 1852ft 0kts
11-Dec-19 13:38 36.223003 -115.039643 308 1852ft 0kts
11-Dec-19 13:39 36.223003 -115.039643 308 1852ft 0kts
11-Dec-19 13:39 36.223003 -115.039643 308 1852ft 0kts
11-Dec-19 13:41 36.223003 -115.039643 308 1852ft 0kts
11-Dec-19 13:42 36.223003 -115.039643 308 1852ft 0kts
11-Dec-19 13:42 36.223003 -115.039643 308 1852ft 0kts
11-Dec-19 13:43 36.223003 -115.039643 308 1852ft 0kts
11-Dec-19 13:45 36.223003 -115.039643 308 1852ft 0kts
11-Dec-19 13:45 36.223003 -115.039643 309 1852ft 0kts
11-Dec-19 13:46 36.223003 -115.039643 309 1852ft 0kts
11-Dec-19 13:47 36.223003 -115.039643 309 1852ft 0kts
11-Dec-19 13:48 36.223003 -115.039643 309 1852ft 0kts
11-Dec-19 13:49 36.223044 -115.039976 264 1852ft 7kts
11-Dec-19 13:50 36.224561 -115.043525 322 1852ft 0kts
11-Dec-19 13:51 36.224562 -115.043526 323 1852ft 0kts
11-Dec-19 13:52 36.224562 -115.043526 323 1852ft 0kts
11-Dec-19 13:53 36.224632 -115.043590 324 1852ft 5kts
11-Dec-19 13:54 36.246514 -115.020101 42 2396ft 205kts
11-Dec-19 13:55 36.298296 -115.004046 333 3325ft 253kts
11-Dec-19 13:56 36.334052 -115.073452 282 5262ft 251kts
11-Dec-19 13:57 36.350733 -115.160311 284 6883ft 246kts
11-Dec-19 13:58 36.363818 -115.246483 281 8007ft 251kts
11-Dec-19 13:59 36.335086 -115.314233 203 8149ft 252kts
11-Dec-19 14:00 36.299767 -115.374925 281 10563ft 264kts
11-Dec-19 14:01 36.316579 -115.468379 281 15566ft 294kts
11-Dec-19 14:02 36.332371 -115.589407 280 17236ft 406kts
11-Dec-19 14:03 36.352309 -115.755131 280 16184ft 514kts
11-Dec-19 14:04 36.396346 -115.928925 296 16481ft 513kts
11-Dec-19 14:05 36.462920 -116.091941 298 16544ft 512kts
11-Dec-19 14:06 36.537115 -116.248874 297 16481ft 511kts
11-Dec-19 14:07 36.568083 -116.428755 280 16221ft 516kts
11-Dec-19 14:08 36.591517 -116.609657 279 16606ft 511kts
11-Dec-19 14:09 36.615833 -116.786595 280 16496ft 517kts
11-Dec-19 14:10 36.635864 -116.966232 278 16781ft 513kts
11-Dec-19 14:11 36.648027 -117.142940 261 15855ft 523kts
11-Dec-19 14:12 36.563944 -117.295083 232 16553ft 534kts
11-Dec-19 14:13 36.485596 -117.399239 240 27883ft 326kts
11-Dec-19 14:14 36.429012 -117.492415 250 30560ft 327kts
11-Dec-19 14:15 36.384457 -117.585587 266 32803ft 310kts
11-Dec-19 14:16 36.352662 -117.678348 228 34638ft 383kts
11-Dec-19 14:17 36.271244 -117.731948 223 36799ft 378kts
11-Dec-19 14:18 36.184864 -117.790142 221 37866ft 397kts
11-Dec-19 14:19 36.074775 -117.856251 221 38743ft 424kts
11-Dec-19 14:20 35.973451 -117.892510 174 41469ft 427kts
11-Dec-19 14:21 35.873089 -117.846230 160 42756ft 411kts
11-Dec-19 14:22 35.788360 -117.803680 163 43409ft 393kts
11-Dec-19 14:23 35.723968 -117.728959 88 42600ft 377kts
11-Dec-19 14:24 35.741283 -117.632878 2 41924ft 260kts
11-Dec-19 14:25 35.805964 -117.630172 348 42790ft 224kts
11-Dec-19 14:26 35.867570 -117.631755 272 37973ft 418kts
11-Dec-19 14:27 35.974721 -117.630486 357 21062ft 493kts
11-Dec-19 14:28 36.093927 -117.622829 355 28902ft 322kts
11-Dec-19 14:29 36.151685 -117.616124 348 34686ft 189kts
11-Dec-19 14:30 36.169101 -117.651083 220 34028ft 330kts
11-Dec-19 14:31 36.077050 -117.655595 197 36007ft 343kts
11-Dec-19 14:32 35.993352 -117.675859 224 37103ft 305kts
11-Dec-19 14:33 35.924136 -117.727176 232 37856ft 303kts
11-Dec-19 14:34 35.869832 -117.778350 242 38519ft 289kts
11-Dec-19 14:35 35.819331 -117.840476 246 36244ft 306kts
11-Dec-19 14:36 35.786654 -117.940745 291 28832ft 391kts
11-Dec-19 14:37 35.778697 -118.089672 251 25860ft 439kts
11-Dec-19 14:38 35.668016 -118.151175 192 24284ft 482kts
11-Dec-19 14:39 35.520627 -118.164404 191 15039ft 540kts
11-Dec-19 14:40 35.380277 -118.198412 195 14352ft 467kts
11-Dec-19 14:41 35.257925 -118.234522 196 11163ft 484kts
11-Dec-19 14:42 35.143270 -118.229968 126 9828ft 355kts
11-Dec-19 14:43 35.101322 -118.151305 118 9335ft 243kts
11-Dec-19 14:44 35.059824 -118.079590 122 8632ft 251kts
11-Dec-19 14:45 35.015506 -118.013183 173 8393ft 248kts
11-Dec-19 14:46 34.989581 -118.069359 323 6245ft 260kts
11-Dec-19 14:47 35.042754 -118.128441 317 3089ft 229kts
11-Dec-19 14:48 35.067093 -118.125760 152 3290ft 131kts
11-Dec-19 14:49 35.058842 -118.145562 52 2757ft 0kts
11-Dec-19 14:50 35.058842 -118.145562 52 2757ft 0kts

Navigation Log

Ident Type
Flight plan parsing failed, navigation log unavailable